sensor_id;sensor_type;location;lat;lon;timestamp;P1;durP1;ratioP1;P2;durP2;ratioP2
68050;SDS011;54839;51.364;7.246;2024-01-25T00:01:14;24.07;;;7.87;;
68050;SDS011;54839;51.364;7.246;2024-01-25T00:03:40;26.27;;;8.00;;
68050;SDS011;54839;51.364;7.246;2024-01-25T00:06:06;32.67;;;7.27;;
68050;SDS011;54839;51.364;7.246;2024-01-25T00:08:32;25.30;;;7.40;;
68050;SDS011;54839;51.364;7.246;2024-01-25T00:10:59;24.67;;;8.30;;
68050;SDS011;54839;51.364;7.246;2024-01-25T00:13:25;23.00;;;7.40;;
68050;SDS011;54839;51.364;7.246;2024-01-25T00:15:51;34.33;;;6.63;;
68050;SDS011;54839;51.364;7.246;2024-01-25T00:18:17;33.60;;;7.00;;
68050;SDS011;54839;51.364;7.246;2024-01-25T00:20:43;34.60;;;8.10;;
68050;SDS011;54839;51.364;7.246;2024-01-25T00:23:08;26.67;;;7.57;;
68050;SDS011;54839;51.364;7.246;2024-01-25T00:25:34;36.90;;;8.60;;
68050;SDS011;54839;51.364;7.246;2024-01-25T00:28:00;32.97;;;8.27;;
68050;SDS011;54839;51.364;7.246;2024-01-25T00:30:25;39.80;;;8.83;;
68050;SDS011;54839;51.364;7.246;2024-01-25T00:32:51;28.23;;;8.27;;
68050;SDS011;54839;51.364;7.246;2024-01-25T00:35:17;30.37;;;5.63;;
68050;SDS011;54839;51.364;7.246;2024-01-25T00:37:43;25.73;;;9.20;;
68050;SDS011;54839;51.364;7.246;2024-01-25T00:40:09;22.63;;;6.73;;
68050;SDS011;54839;51.364;7.246;2024-01-25T00:42:45;24.53;;;7.20;;
68050;SDS011;54839;51.364;7.246;2024-01-25T00:45:18;26.20;;;9.10;;
68050;SDS011;54839;51.364;7.246;2024-01-25T00:47:45;36.60;;;7.57;;
68050;SDS011;54839;51.364;7.246;2024-01-25T00:50:12;34.87;;;9.50;;
68050;SDS011;54839;51.364;7.246;2024-01-25T00:52:38;36.00;;;9.30;;
68050;SDS011;54839;51.364;7.246;2024-01-25T00:55:04;34.13;;;7.93;;
68050;SDS011;54839;51.364;7.246;2024-01-25T00:57:30;27.70;;;7.93;;
68050;SDS011;54839;51.364;7.246;2024-01-25T00:59:58;29.90;;;10.17;;
68050;SDS011;54839;51.364;7.246;2024-01-25T01:02:24;38.67;;;12.63;;
68050;SDS011;54839;51.364;7.246;2024-01-25T01:04:55;30.17;;;8.20;;
68050;SDS011;54839;51.364;7.246;2024-01-25T01:07:22;26.27;;;7.43;;
68050;SDS011;54839;51.364;7.246;2024-01-25T01:09:48;38.57;;;8.80;;
68050;SDS011;54839;51.364;7.246;2024-01-25T01:12:13;32.57;;;7.20;;
68050;SDS011;54839;51.364;7.246;2024-01-25T01:14:42;35.03;;;8.80;;
68050;SDS011;54839;51.364;7.246;2024-01-25T01:17:08;19.90;;;5.87;;
68050;SDS011;54839;51.364;7.246;2024-01-25T01:19:34;34.33;;;9.27;;
68050;SDS011;54839;51.364;7.246;2024-01-25T01:22:00;32.90;;;7.67;;
68050;SDS011;54839;51.364;7.246;2024-01-25T01:24:25;28.50;;;7.63;;
68050;SDS011;54839;51.364;7.246;2024-01-25T01:26:51;31.80;;;6.87;;
68050;SDS011;54839;51.364;7.246;2024-01-25T01:29:17;38.67;;;7.93;;
68050;SDS011;54839;51.364;7.246;2024-01-25T01:31:43;32.23;;;8.20;;
68050;SDS011;54839;51.364;7.246;2024-01-25T01:34:09;32.47;;;9.10;;
68050;SDS011;54839;51.364;7.246;2024-01-25T01:36:37;29.43;;;8.03;;
68050;SDS011;54839;51.364;7.246;2024-01-25T01:39:03;30.53;;;7.53;;
68050;SDS011;54839;51.364;7.246;2024-01-25T01:41:29;26.57;;;9.33;;
68050;SDS011;54839;51.364;7.246;2024-01-25T01:43:54;29.80;;;8.20;;
68050;SDS011;54839;51.364;7.246;2024-01-25T01:46:26;34.60;;;9.37;;
68050;SDS011;54839;51.364;7.246;2024-01-25T01:49:08;24.97;;;7.97;;
68050;SDS011;54839;51.364;7.246;2024-01-25T01:51:36;35.33;;;7.80;;
68050;SDS011;54839;51.364;7.246;2024-01-25T01:54:05;34.10;;;7.33;;
68050;SDS011;54839;51.364;7.246;2024-01-25T01:56:31;33.87;;;8.07;;
68050;SDS011;54839;51.364;7.246;2024-01-25T01:59:01;43.70;;;8.60;;
68050;SDS011;54839;51.364;7.246;2024-01-25T02:01:29;33.67;;;7.33;;
68050;SDS011;54839;51.364;7.246;2024-01-25T02:03:56;30.10;;;9.00;;
68050;SDS011;54839;51.364;7.246;2024-01-25T02:06:23;33.67;;;8.20;;
68050;SDS011;54839;51.364;7.246;2024-01-25T02:08:49;23.73;;;7.10;;
68050;SDS011;54839;51.364;7.246;2024-01-25T02:11:24;31.30;;;8.07;;
68050;SDS011;54839;51.364;7.246;2024-01-25T02:13:50;37.87;;;9.53;;
68050;SDS011;54839;51.364;7.246;2024-01-25T02:16:16;39.93;;;7.90;;
68050;SDS011;54839;51.364;7.246;2024-01-25T02:18:42;36.77;;;9.80;;
68050;SDS011;54839;51.364;7.246;2024-01-25T02:21:08;34.63;;;8.33;;
68050;SDS011;54839;51.364;7.246;2024-01-25T02:23:34;25.50;;;8.30;;
68050;SDS011;54839;51.364;7.246;2024-01-25T02:26:00;35.73;;;9.67;;
68050;SDS011;54839;51.364;7.246;2024-01-25T02:28:25;28.53;;;7.67;;
68050;SDS011;54839;51.364;7.246;2024-01-25T02:30:51;26.13;;;7.30;;
68050;SDS011;54839;51.364;7.246;2024-01-25T02:33:17;28.20;;;6.07;;
68050;SDS011;54839;51.364;7.246;2024-01-25T02:35:43;31.43;;;7.93;;
68050;SDS011;54839;51.364;7.246;2024-01-25T02:38:09;28.53;;;6.40;;
68050;SDS011;54839;51.364;7.246;2024-01-25T02:40:34;35.57;;;8.07;;
68050;SDS011;54839;51.364;7.246;2024-01-25T02:43:00;35.00;;;7.30;;
68050;SDS011;54839;51.364;7.246;2024-01-25T02:45:26;28.63;;;7.13;;
68050;SDS011;54839;51.364;7.246;2024-01-25T02:47:51;33.27;;;9.07;;
68050;SDS011;54839;51.364;7.246;2024-01-25T02:50:17;22.07;;;6.50;;
68050;SDS011;54839;51.364;7.246;2024-01-25T02:52:43;37.30;;;8.03;;
68050;SDS011;54839;51.364;7.246;2024-01-25T02:55:08;30.17;;;7.47;;
68050;SDS011;54839;51.364;7.246;2024-01-25T02:57:34;27.67;;;7.73;;
68050;SDS011;54839;51.364;7.246;2024-01-25T02:59:59;35.90;;;8.10;;
68050;SDS011;54839;51.364;7.246;2024-01-25T03:02:25;25.50;;;7.83;;
68050;SDS011;54839;51.364;7.246;2024-01-25T03:04:51;22.37;;;7.40;;
68050;SDS011;54839;51.364;7.246;2024-01-25T03:07:17;37.30;;;8.20;;
68050;SDS011;54839;51.364;7.246;2024-01-25T03:09:43;30.17;;;6.80;;
68050;SDS011;54839;51.364;7.246;2024-01-25T03:12:08;28.77;;;7.83;;
68050;SDS011;54839;51.364;7.246;2024-01-25T03:14:34;31.00;;;7.30;;
68050;SDS011;54839;51.364;7.246;2024-01-25T03:17:00;32.57;;;8.77;;
68050;SDS011;54839;51.364;7.246;2024-01-25T03:19:26;35.63;;;7.03;;
68050;SDS011;54839;51.364;7.246;2024-01-25T03:21:52;29.50;;;7.07;;
68050;SDS011;54839;51.364;7.246;2024-01-25T03:24:19;36.87;;;7.80;;
68050;SDS011;54839;51.364;7.246;2024-01-25T03:26:45;24.50;;;6.20;;
68050;SDS011;54839;51.364;7.246;2024-01-25T03:29:11;33.60;;;7.20;;
68050;SDS011;54839;51.364;7.246;2024-01-25T03:31:36;27.27;;;8.10;;
68050;SDS011;54839;51.364;7.246;2024-01-25T03:34:02;29.53;;;8.60;;
68050;SDS011;54839;51.364;7.246;2024-01-25T03:36:28;28.13;;;7.97;;
68050;SDS011;54839;51.364;7.246;2024-01-25T03:38:54;44.70;;;7.37;;
68050;SDS011;54839;51.364;7.246;2024-01-25T03:41:20;27.50;;;7.57;;
68050;SDS011;54839;51.364;7.246;2024-01-25T03:43:45;34.13;;;7.00;;
68050;SDS011;54839;51.364;7.246;2024-01-25T03:46:11;27.00;;;6.93;;
68050;SDS011;54839;51.364;7.246;2024-01-25T03:48:37;32.87;;;8.20;;
68050;SDS011;54839;51.364;7.246;2024-01-25T03:51:03;25.97;;;6.17;;
68050;SDS011;54839;51.364;7.246;2024-01-25T03:53:29;27.27;;;8.87;;
68050;SDS011;54839;51.364;7.246;2024-01-25T03:55:55;28.10;;;9.13;;
68050;SDS011;54839;51.364;7.246;2024-01-25T03:58:20;36.83;;;8.60;;
68050;SDS011;54839;51.364;7.246;2024-01-25T04:00:46;28.13;;;6.40;;
68050;SDS011;54839;51.364;7.246;2024-01-25T04:03:12;35.80;;;7.77;;
68050;SDS011;54839;51.364;7.246;2024-01-25T04:05:37;25.67;;;7.47;;
68050;SDS011;54839;51.364;7.246;2024-01-25T04:08:06;23.93;;;7.23;;
68050;SDS011;54839;51.364;7.246;2024-01-25T04:10:32;30.03;;;8.87;;
68050;SDS011;54839;51.364;7.246;2024-01-25T04:13:00;30.37;;;7.30;;
68050;SDS011;54839;51.364;7.246;2024-01-25T04:15:27;29.70;;;5.93;;
68050;SDS011;54839;51.364;7.246;2024-01-25T04:17:52;27.20;;;7.53;;
68050;SDS011;54839;51.364;7.246;2024-01-25T04:20:18;31.70;;;7.10;;
68050;SDS011;54839;51.364;7.246;2024-01-25T04:22:44;37.10;;;7.20;;
68050;SDS011;54839;51.364;7.246;2024-01-25T04:25:10;30.93;;;8.20;;
68050;SDS011;54839;51.364;7.246;2024-01-25T04:27:38;34.43;;;7.80;;
68050;SDS011;54839;51.364;7.246;2024-01-25T04:30:05;30.67;;;8.50;;
68050;SDS011;54839;51.364;7.246;2024-01-25T04:32:32;32.73;;;7.37;;
68050;SDS011;54839;51.364;7.246;2024-01-25T04:34:58;39.43;;;8.20;;
68050;SDS011;54839;51.364;7.246;2024-01-25T04:37:24;37.47;;;9.67;;
68050;SDS011;54839;51.364;7.246;2024-01-25T04:39:49;27.20;;;7.17;;
68050;SDS011;54839;51.364;7.246;2024-01-25T04:42:15;29.60;;;7.80;;
68050;SDS011;54839;51.364;7.246;2024-01-25T04:44:41;31.93;;;7.97;;
68050;SDS011;54839;51.364;7.246;2024-01-25T04:47:06;22.83;;;7.73;;
68050;SDS011;54839;51.364;7.246;2024-01-25T04:49:34;33.17;;;8.20;;
68050;SDS011;54839;51.364;7.246;2024-01-25T04:52:00;46.27;;;9.57;;
68050;SDS011;54839;51.364;7.246;2024-01-25T04:54:25;29.03;;;8.20;;
68050;SDS011;54839;51.364;7.246;2024-01-25T04:56:51;36.20;;;6.20;;
68050;SDS011;54839;51.364;7.246;2024-01-25T04:59:17;37.80;;;8.10;;
68050;SDS011;54839;51.364;7.246;2024-01-25T05:01:42;39.40;;;9.17;;
68050;SDS011;54839;51.364;7.246;2024-01-25T05:04:08;40.20;;;11.33;;
68050;SDS011;54839;51.364;7.246;2024-01-25T05:06:34;31.77;;;6.73;;
68050;SDS011;54839;51.364;7.246;2024-01-25T05:09:01;38.73;;;8.13;;
68050;SDS011;54839;51.364;7.246;2024-01-25T05:11:26;35.97;;;8.00;;
68050;SDS011;54839;51.364;7.246;2024-01-25T05:13:52;40.13;;;11.83;;
68050;SDS011;54839;51.364;7.246;2024-01-25T05:16:18;32.13;;;7.83;;
68050;SDS011;54839;51.364;7.246;2024-01-25T05:18:44;25.40;;;8.27;;
68050;SDS011;54839;51.364;7.246;2024-01-25T05:21:09;29.53;;;7.83;;
68050;SDS011;54839;51.364;7.246;2024-01-25T05:23:35;33.43;;;8.30;;
68050;SDS011;54839;51.364;7.246;2024-01-25T05:26:01;45.37;;;9.20;;
68050;SDS011;54839;51.364;7.246;2024-01-25T05:28:27;30.70;;;6.40;;
68050;SDS011;54839;51.364;7.246;2024-01-25T05:30:53;16.53;;;5.83;;
68050;SDS011;54839;51.364;7.246;2024-01-25T05:33:18;37.83;;;8.17;;
68050;SDS011;54839;51.364;7.246;2024-01-25T05:35:44;35.07;;;8.80;;
68050;SDS011;54839;51.364;7.246;2024-01-25T05:38:10;38.47;;;9.50;;
68050;SDS011;54839;51.364;7.246;2024-01-25T05:40:35;33.80;;;7.73;;
68050;SDS011;54839;51.364;7.246;2024-01-25T05:43:01;30.20;;;8.70;;
68050;SDS011;54839;51.364;7.246;2024-01-25T05:45:28;32.57;;;7.43;;
68050;SDS011;54839;51.364;7.246;2024-01-25T05:47:53;38.43;;;8.90;;
68050;SDS011;54839;51.364;7.246;2024-01-25T05:50:19;34.67;;;7.37;;
68050;SDS011;54839;51.364;7.246;2024-01-25T05:52:46;40.10;;;7.70;;
68050;SDS011;54839;51.364;7.246;2024-01-25T05:55:12;47.13;;;9.03;;
68050;SDS011;54839;51.364;7.246;2024-01-25T05:57:39;24.30;;;7.77;;
68050;SDS011;54839;51.364;7.246;2024-01-25T06:00:08;30.77;;;10.23;;
68050;SDS011;54839;51.364;7.246;2024-01-25T06:02:36;35.73;;;9.90;;
68050;SDS011;54839;51.364;7.246;2024-01-25T06:05:02;40.70;;;9.23;;
68050;SDS011;54839;51.364;7.246;2024-01-25T06:07:28;26.53;;;7.87;;
68050;SDS011;54839;51.364;7.246;2024-01-25T06:09:53;38.53;;;9.40;;
68050;SDS011;54839;51.364;7.246;2024-01-25T06:12:19;28.10;;;8.83;;
68050;SDS011;54839;51.364;7.246;2024-01-25T06:14:45;39.83;;;7.97;;
68050;SDS011;54839;51.364;7.246;2024-01-25T06:17:11;48.33;;;8.20;;
68050;SDS011;54839;51.364;7.246;2024-01-25T06:19:36;31.80;;;9.53;;
68050;SDS011;54839;51.364;7.246;2024-01-25T06:22:02;33.97;;;9.77;;
68050;SDS011;54839;51.364;7.246;2024-01-25T06:24:28;29.13;;;8.17;;
68050;SDS011;54839;51.364;7.246;2024-01-25T06:26:54;36.77;;;8.70;;
68050;SDS011;54839;51.364;7.246;2024-01-25T06:29:19;36.50;;;10.17;;
68050;SDS011;54839;51.364;7.246;2024-01-25T06:31:45;37.67;;;8.40;;
68050;SDS011;54839;51.364;7.246;2024-01-25T06:34:11;47.00;;;11.17;;
68050;SDS011;54839;51.364;7.246;2024-01-25T06:36:38;32.20;;;9.43;;
68050;SDS011;54839;51.364;7.246;2024-01-25T06:39:03;36.20;;;10.27;;
68050;SDS011;54839;51.364;7.246;2024-01-25T06:41:29;34.87;;;9.50;;
68050;SDS011;54839;51.364;7.246;2024-01-25T06:43:55;48.27;;;10.30;;
68050;SDS011;54839;51.364;7.246;2024-01-25T06:46:21;35.50;;;11.83;;
68050;SDS011;54839;51.364;7.246;2024-01-25T06:48:47;39.00;;;12.97;;
68050;SDS011;54839;51.364;7.246;2024-01-25T06:51:14;40.03;;;14.47;;
68050;SDS011;54839;51.364;7.246;2024-01-25T06:53:39;48.70;;;13.67;;
68050;SDS011;54839;51.364;7.246;2024-01-25T06:56:05;56.63;;;16.37;;
68050;SDS011;54839;51.364;7.246;2024-01-25T06:58:31;47.33;;;17.67;;
68050;SDS011;54839;51.364;7.246;2024-01-25T07:00:57;51.40;;;16.90;;
68050;SDS011;54839;51.364;7.246;2024-01-25T07:03:24;64.00;;;22.23;;
68050;SDS011;54839;51.364;7.246;2024-01-25T07:05:50;53.70;;;20.97;;
68050;SDS011;54839;51.364;7.246;2024-01-25T07:08:16;80.37;;;24.00;;
68050;SDS011;54839;51.364;7.246;2024-01-25T07:10:42;57.80;;;25.10;;
68050;SDS011;54839;51.364;7.246;2024-01-25T07:13:09;57.73;;;24.57;;
68050;SDS011;54839;51.364;7.246;2024-01-25T07:15:34;42.80;;;22.57;;
68050;SDS011;54839;51.364;7.246;2024-01-25T07:18:00;55.23;;;24.93;;
68050;SDS011;54839;51.364;7.246;2024-01-25T07:20:26;57.23;;;26.13;;
68050;SDS011;54839;51.364;7.246;2024-01-25T07:22:52;73.87;;;26.67;;
68050;SDS011;54839;51.364;7.246;2024-01-25T07:25:17;67.47;;;26.10;;
68050;SDS011;54839;51.364;7.246;2024-01-25T07:27:44;60.47;;;25.23;;
68050;SDS011;54839;51.364;7.246;2024-01-25T07:30:10;63.60;;;26.60;;
68050;SDS011;54839;51.364;7.246;2024-01-25T07:32:37;69.63;;;26.87;;
68050;SDS011;54839;51.364;7.246;2024-01-25T07:35:04;66.80;;;27.80;;
68050;SDS011;54839;51.364;7.246;2024-01-25T07:37:30;71.23;;;26.30;;
68050;SDS011;54839;51.364;7.246;2024-01-25T07:39:56;69.63;;;26.80;;
68050;SDS011;54839;51.364;7.246;2024-01-25T07:42:21;71.13;;;28.37;;
68050;SDS011;54839;51.364;7.246;2024-01-25T07:44:47;71.80;;;29.20;;
68050;SDS011;54839;51.364;7.246;2024-01-25T07:47:13;62.37;;;28.33;;
68050;SDS011;54839;51.364;7.246;2024-01-25T07:49:42;61.80;;;29.03;;
68050;SDS011;54839;51.364;7.246;2024-01-25T07:52:08;66.20;;;27.73;;
68050;SDS011;54839;51.364;7.246;2024-01-25T07:54:34;69.67;;;28.13;;
68050;SDS011;54839;51.364;7.246;2024-01-25T07:56:59;70.83;;;31.20;;
68050;SDS011;54839;51.364;7.246;2024-01-25T07:59:25;68.77;;;27.67;;
68050;SDS011;54839;51.364;7.246;2024-01-25T08:01:51;77.40;;;32.00;;
68050;SDS011;54839;51.364;7.246;2024-01-25T08:04:16;74.67;;;30.37;;
68050;SDS011;54839;51.364;7.246;2024-01-25T08:06:42;62.13;;;29.97;;
68050;SDS011;54839;51.364;7.246;2024-01-25T08:09:08;54.40;;;25.10;;
68050;SDS011;54839;51.364;7.246;2024-01-25T08:11:34;69.00;;;27.93;;
68050;SDS011;54839;51.364;7.246;2024-01-25T08:14:00;74.57;;;22.87;;
68050;SDS011;54839;51.364;7.246;2024-01-25T08:16:26;59.03;;;24.00;;
68050;SDS011;54839;51.364;7.246;2024-01-25T08:18:51;67.00;;;24.97;;
68050;SDS011;54839;51.364;7.246;2024-01-25T08:21:17;51.20;;;24.10;;
68050;SDS011;54839;51.364;7.246;2024-01-25T08:23:43;41.40;;;21.20;;
68050;SDS011;54839;51.364;7.246;2024-01-25T08:26:09;51.07;;;22.60;;
68050;SDS011;54839;51.364;7.246;2024-01-25T08:28:35;55.13;;;23.37;;
68050;SDS011;54839;51.364;7.246;2024-01-25T08:31:01;48.80;;;22.43;;
68050;SDS011;54839;51.364;7.246;2024-01-25T08:33:27;36.77;;;16.10;;
68050;SDS011;54839;51.364;7.246;2024-01-25T08:35:53;49.40;;;18.97;;
68050;SDS011;54839;51.364;7.246;2024-01-25T08:38:18;43.40;;;15.53;;
68050;SDS011;54839;51.364;7.246;2024-01-25T08:40:44;40.47;;;18.83;;
68050;SDS011;54839;51.364;7.246;2024-01-25T08:43:10;50.70;;;19.93;;
68050;SDS011;54839;51.364;7.246;2024-01-25T08:45:35;46.13;;;19.60;;
68050;SDS011;54839;51.364;7.246;2024-01-25T08:48:02;64.33;;;20.73;;
68050;SDS011;54839;51.364;7.246;2024-01-25T08:50:29;59.83;;;19.43;;
68050;SDS011;54839;51.364;7.246;2024-01-25T08:52:54;49.33;;;17.00;;
68050;SDS011;54839;51.364;7.246;2024-01-25T08:55:20;53.27;;;22.27;;
68050;SDS011;54839;51.364;7.246;2024-01-25T08:57:47;39.30;;;16.60;;
68050;SDS011;54839;51.364;7.246;2024-01-25T09:00:13;40.17;;;17.97;;
68050;SDS011;54839;51.364;7.246;2024-01-25T09:02:40;53.33;;;20.00;;
68050;SDS011;54839;51.364;7.246;2024-01-25T09:05:06;43.13;;;19.37;;
68050;SDS011;54839;51.364;7.246;2024-01-25T09:07:32;38.30;;;20.27;;
68050;SDS011;54839;51.364;7.246;2024-01-25T09:09:58;44.50;;;19.90;;
68050;SDS011;54839;51.364;7.246;2024-01-25T09:12:24;44.70;;;20.40;;
68050;SDS011;54839;51.364;7.246;2024-01-25T09:14:49;47.03;;;18.00;;
68050;SDS011;54839;51.364;7.246;2024-01-25T09:17:15;58.40;;;23.67;;
68050;SDS011;54839;51.364;7.246;2024-01-25T09:19:46;52.13;;;21.00;;
68050;SDS011;54839;51.364;7.246;2024-01-25T09:22:13;71.60;;;21.90;;
68050;SDS011;54839;51.364;7.246;2024-01-25T09:24:41;56.40;;;20.33;;
68050;SDS011;54839;51.364;7.246;2024-01-25T09:27:07;44.67;;;18.10;;
68050;SDS011;54839;51.364;7.246;2024-01-25T09:29:34;47.03;;;17.67;;
68050;SDS011;54839;51.364;7.246;2024-01-25T09:32:00;49.23;;;17.70;;
68050;SDS011;54839;51.364;7.246;2024-01-25T09:34:26;39.00;;;15.47;;
68050;SDS011;54839;51.364;7.246;2024-01-25T09:36:52;44.70;;;16.27;;
68050;SDS011;54839;51.364;7.246;2024-01-25T09:39:17;38.33;;;16.23;;
68050;SDS011;54839;51.364;7.246;2024-01-25T09:41:43;37.67;;;15.73;;
68050;SDS011;54839;51.364;7.246;2024-01-25T09:44:09;41.97;;;16.83;;
68050;SDS011;54839;51.364;7.246;2024-01-25T09:46:36;38.77;;;16.47;;
68050;SDS011;54839;51.364;7.246;2024-01-25T09:49:03;38.87;;;16.30;;
68050;SDS011;54839;51.364;7.246;2024-01-25T09:51:30;40.77;;;15.87;;
68050;SDS011;54839;51.364;7.246;2024-01-25T09:54:05;38.67;;;15.93;;
68050;SDS011;54839;51.364;7.246;2024-01-25T09:56:32;46.00;;;15.37;;
68050;SDS011;54839;51.364;7.246;2024-01-25T09:58:58;43.53;;;17.77;;
68050;SDS011;54839;51.364;7.246;2024-01-25T10:01:25;50.27;;;19.10;;
68050;SDS011;54839;51.364;7.246;2024-01-25T10:03:51;50.53;;;17.10;;
68050;SDS011;54839;51.364;7.246;2024-01-25T10:06:17;47.57;;;20.40;;
68050;SDS011;54839;51.364;7.246;2024-01-25T10:08:43;49.80;;;19.20;;
68050;SDS011;54839;51.364;7.246;2024-01-25T10:11:09;44.00;;;17.70;;
68050;SDS011;54839;51.364;7.246;2024-01-25T10:13:46;40.87;;;16.73;;
68050;SDS011;54839;51.364;7.246;2024-01-25T10:16:14;44.90;;;17.63;;
68050;SDS011;54839;51.364;7.246;2024-01-25T10:18:41;40.63;;;18.70;;
68050;SDS011;54839;51.364;7.246;2024-01-25T10:21:11;58.57;;;19.33;;
68050;SDS011;54839;51.364;7.246;2024-01-25T10:23:40;56.60;;;17.27;;
68050;SDS011;54839;51.364;7.246;2024-01-25T10:26:09;52.23;;;19.83;;
68050;SDS011;54839;51.364;7.246;2024-01-25T10:28:35;53.30;;;17.27;;
68050;SDS011;54839;51.364;7.246;2024-01-25T10:31:01;52.63;;;16.17;;
68050;SDS011;54839;51.364;7.246;2024-01-25T10:33:29;49.47;;;16.70;;
68050;SDS011;54839;51.364;7.246;2024-01-25T10:35:56;42.07;;;17.53;;
68050;SDS011;54839;51.364;7.246;2024-01-25T10:38:33;46.03;;;18.03;;
68050;SDS011;54839;51.364;7.246;2024-01-25T10:41:01;36.57;;;14.07;;
68050;SDS011;54839;51.364;7.246;2024-01-25T10:43:28;48.37;;;16.60;;
68050;SDS011;54839;51.364;7.246;2024-01-25T10:45:57;35.43;;;15.80;;
68050;SDS011;54839;51.364;7.246;2024-01-25T10:48:26;42.37;;;16.33;;
68050;SDS011;54839;51.364;7.246;2024-01-25T10:50:55;33.30;;;14.83;;
68050;SDS011;54839;51.364;7.246;2024-01-25T10:53:22;44.90;;;18.63;;
68050;SDS011;54839;51.364;7.246;2024-01-25T10:55:50;36.37;;;15.00;;
68050;SDS011;54839;51.364;7.246;2024-01-25T10:58:16;49.13;;;15.70;;
68050;SDS011;54839;51.364;7.246;2024-01-25T11:00:48;34.30;;;15.83;;
68050;SDS011;54839;51.364;7.246;2024-01-25T11:03:20;50.63;;;15.90;;
68050;SDS011;54839;51.364;7.246;2024-01-25T11:05:51;42.77;;;18.50;;
68050;SDS011;54839;51.364;7.246;2024-01-25T11:08:19;41.83;;;16.13;;
68050;SDS011;54839;51.364;7.246;2024-01-25T11:10:51;51.93;;;18.37;;
68050;SDS011;54839;51.364;7.246;2024-01-25T11:13:23;39.70;;;14.97;;
68050;SDS011;54839;51.364;7.246;2024-01-25T11:15:51;40.73;;;17.60;;
68050;SDS011;54839;51.364;7.246;2024-01-25T11:18:17;34.33;;;14.03;;
68050;SDS011;54839;51.364;7.246;2024-01-25T11:20:43;44.83;;;14.87;;
68050;SDS011;54839;51.364;7.246;2024-01-25T11:23:14;41.67;;;16.40;;
68050;SDS011;54839;51.364;7.246;2024-01-25T11:25:43;39.53;;;18.83;;
68050;SDS011;54839;51.364;7.246;2024-01-25T11:28:10;31.87;;;15.53;;
68050;SDS011;54839;51.364;7.246;2024-01-25T11:30:41;38.10;;;16.40;;
68050;SDS011;54839;51.364;7.246;2024-01-25T11:33:08;36.00;;;15.73;;
68050;SDS011;54839;51.364;7.246;2024-01-25T11:35:34;44.73;;;16.90;;
68050;SDS011;54839;51.364;7.246;2024-01-25T11:38:00;42.00;;;15.97;;
68050;SDS011;54839;51.364;7.246;2024-01-25T11:40:26;38.10;;;16.33;;
68050;SDS011;54839;51.364;7.246;2024-01-25T11:42:53;56.40;;;17.60;;
68050;SDS011;54839;51.364;7.246;2024-01-25T11:45:19;34.53;;;16.37;;
68050;SDS011;54839;51.364;7.246;2024-01-25T11:47:45;34.80;;;14.77;;
68050;SDS011;54839;51.364;7.246;2024-01-25T11:50:11;34.83;;;14.77;;
68050;SDS011;54839;51.364;7.246;2024-01-25T11:52:38;42.10;;;13.90;;
68050;SDS011;54839;51.364;7.246;2024-01-25T11:55:04;24.83;;;12.17;;
68050;SDS011;54839;51.364;7.246;2024-01-25T11:57:35;36.83;;;13.30;;
68050;SDS011;54839;51.364;7.246;2024-01-25T12:00:09;32.97;;;13.70;;
68050;SDS011;54839;51.364;7.246;2024-01-25T12:02:37;36.60;;;15.87;;
68050;SDS011;54839;51.364;7.246;2024-01-25T12:05:03;24.67;;;13.57;;
68050;SDS011;54839;51.364;7.246;2024-01-25T12:07:30;34.90;;;13.40;;
68050;SDS011;54839;51.364;7.246;2024-01-25T12:10:06;28.87;;;12.40;;
68050;SDS011;54839;51.364;7.246;2024-01-25T12:12:36;30.13;;;10.17;;
68050;SDS011;54839;51.364;7.246;2024-01-25T12:15:05;28.23;;;9.87;;
68050;SDS011;54839;51.364;7.246;2024-01-25T12:17:33;21.97;;;8.80;;
68050;SDS011;54839;51.364;7.246;2024-01-25T12:20:01;32.23;;;10.30;;
68050;SDS011;54839;51.364;7.246;2024-01-25T12:22:28;34.87;;;11.30;;
68050;SDS011;54839;51.364;7.246;2024-01-25T12:24:55;32.70;;;8.40;;
68050;SDS011;54839;51.364;7.246;2024-01-25T12:27:21;23.97;;;8.27;;
68050;SDS011;54839;51.364;7.246;2024-01-25T12:29:48;24.73;;;10.37;;
68050;SDS011;54839;51.364;7.246;2024-01-25T12:32:16;29.93;;;9.20;;
68050;SDS011;54839;51.364;7.246;2024-01-25T12:34:41;33.47;;;9.00;;
68050;SDS011;54839;51.364;7.246;2024-01-25T12:37:09;27.97;;;9.10;;
68050;SDS011;54839;51.364;7.246;2024-01-25T12:39:34;27.87;;;10.00;;
68050;SDS011;54839;51.364;7.246;2024-01-25T12:42:00;26.23;;;8.63;;
68050;SDS011;54839;51.364;7.246;2024-01-25T12:44:26;30.40;;;9.40;;
68050;SDS011;54839;51.364;7.246;2024-01-25T12:46:52;35.10;;;11.20;;
68050;SDS011;54839;51.364;7.246;2024-01-25T12:49:20;25.60;;;8.10;;
68050;SDS011;54839;51.364;7.246;2024-01-25T12:51:48;34.00;;;10.60;;
68050;SDS011;54839;51.364;7.246;2024-01-25T12:54:14;33.87;;;10.10;;
68050;SDS011;54839;51.364;7.246;2024-01-25T12:56:39;38.93;;;10.20;;
68050;SDS011;54839;51.364;7.246;2024-01-25T12:59:10;33.00;;;11.37;;
68050;SDS011;54839;51.364;7.246;2024-01-25T13:01:36;27.83;;;9.30;;
68050;SDS011;54839;51.364;7.246;2024-01-25T13:04:02;39.93;;;12.73;;
68050;SDS011;54839;51.364;7.246;2024-01-25T13:06:28;41.17;;;11.90;;
68050;SDS011;54839;51.364;7.246;2024-01-25T13:08:53;36.10;;;11.00;;
68050;SDS011;54839;51.364;7.246;2024-01-25T13:11:19;27.23;;;9.53;;
68050;SDS011;54839;51.364;7.246;2024-01-25T13:13:45;26.17;;;9.20;;
68050;SDS011;54839;51.364;7.246;2024-01-25T13:16:10;34.33;;;10.10;;
68050;SDS011;54839;51.364;7.246;2024-01-25T13:18:36;33.30;;;12.40;;
68050;SDS011;54839;51.364;7.246;2024-01-25T13:21:05;23.70;;;9.50;;
68050;SDS011;54839;51.364;7.246;2024-01-25T13:23:31;30.20;;;10.33;;
68050;SDS011;54839;51.364;7.246;2024-01-25T13:25:58;36.77;;;12.60;;
68050;SDS011;54839;51.364;7.246;2024-01-25T13:28:24;35.30;;;11.70;;
68050;SDS011;54839;51.364;7.246;2024-01-25T13:30:50;32.13;;;9.43;;
68050;SDS011;54839;51.364;7.246;2024-01-25T13:33:17;35.47;;;11.70;;
68050;SDS011;54839;51.364;7.246;2024-01-25T13:35:43;35.53;;;10.73;;
68050;SDS011;54839;51.364;7.246;2024-01-25T13:38:08;40.23;;;14.33;;
68050;SDS011;54839;51.364;7.246;2024-01-25T13:40:39;29.30;;;11.50;;
68050;SDS011;54839;51.364;7.246;2024-01-25T13:43:05;31.03;;;11.87;;
68050;SDS011;54839;51.364;7.246;2024-01-25T13:45:31;29.50;;;11.40;;
68050;SDS011;54839;51.364;7.246;2024-01-25T13:47:59;31.40;;;11.20;;
68050;SDS011;54839;51.364;7.246;2024-01-25T13:50:25;38.63;;;13.83;;
68050;SDS011;54839;51.364;7.246;2024-01-25T13:52:51;38.93;;;14.77;;
68050;SDS011;54839;51.364;7.246;2024-01-25T13:55:16;48.93;;;23.40;;
68050;SDS011;54839;51.364;7.246;2024-01-25T13:57:42;37.60;;;13.53;;
68050;SDS011;54839;51.364;7.246;2024-01-25T14:00:08;46.13;;;15.20;;
68050;SDS011;54839;51.364;7.246;2024-01-25T14:02:35;36.13;;;13.23;;
68050;SDS011;54839;51.364;7.246;2024-01-25T14:05:01;30.70;;;11.97;;
68050;SDS011;54839;51.364;7.246;2024-01-25T14:07:27;47.67;;;12.87;;
68050;SDS011;54839;51.364;7.246;2024-01-25T14:09:52;53.33;;;15.00;;
68050;SDS011;54839;51.364;7.246;2024-01-25T14:12:19;34.37;;;11.90;;
68050;SDS011;54839;51.364;7.246;2024-01-25T14:14:45;32.50;;;12.20;;
68050;SDS011;54839;51.364;7.246;2024-01-25T14:17:10;42.27;;;14.87;;
68050;SDS011;54839;51.364;7.246;2024-01-25T14:19:36;40.53;;;13.70;;
68050;SDS011;54839;51.364;7.246;2024-01-25T14:22:02;37.50;;;12.00;;
68050;SDS011;54839;51.364;7.246;2024-01-25T14:24:28;29.13;;;12.83;;